Time;durP1;ratioP1;P1;durP2;ratioP2;P2;SDS_P1;SDS_P2;PMS_P1;PMS_P2;Temp;Humidity;BMP_temperature;BMP_pressure;BME280_temperature;BME280_humidity;BME280_pressure;Samples;Min_cycle;Max_cycle;Signal;HPM_P1;HPM_P2
2021/06/30 00:01:08;;;;;;;8.23;4.05;;;;;;;-145.50;100.00;65435.88;4883385;29;20104;-47
2021/06/30 00:03:39;;;;;;;8.07;4.13;;;;;;;-145.50;100.00;65435.88;4882772;29;20098;-49
2021/06/30 00:06:11;;;;;;;9.70;4.20;;;;;;;-145.50;100.00;65435.88;4879937;29;20076;-51
2021/06/30 00:08:42;;;;;;;11.05;4.35;;;;;;;-145.50;100.00;65435.88;4886662;29;20064;-48
2021/06/30 00:11:15;;;;;;;8.10;3.88;;;;;;;-145.50;100.00;65435.88;4882459;29;20053;-48
2021/06/30 00:13:46;;;;;;;6.45;3.80;;;;;;;-145.50;100.00;65435.88;4894281;29;20564;-48
2021/06/30 00:16:18;;;;;;;6.47;3.55;;;;;;;-145.50;100.00;65435.88;4872821;29;20128;-48
2021/06/30 00:18:49;;;;;;;8.85;3.55;;;;;;;-145.50;100.00;65435.88;4890585;29;20571;-47
2021/06/30 00:21:21;;;;;;;4.57;2.85;;;;;;;-145.50;100.00;65435.88;4883112;29;20848;-50
2021/06/30 00:23:53;;;;;;;6.30;2.95;;;;;;;-145.50;100.00;65435.88;4875226;29;20072;-49
2021/06/30 00:26:24;;;;;;;5.15;3.00;;;;;;;-145.50;100.00;65435.88;4888113;29;20481;-48
2021/06/30 00:28:55;;;;;;;5.95;3.20;;;;;;;-145.50;100.00;65435.88;4882632;29;20092;-49
2021/06/30 00:31:27;;;;;;;5.25;2.92;;;;;;;-145.50;100.00;65435.88;4883976;29;20068;-48
2021/06/30 00:34:03;;;;;;;7.53;2.80;;;;;;;-145.50;100.00;65435.88;4878961;29;20561;-47
2021/06/30 00:36:36;;;;;;;3.75;2.53;;;;;;;-145.50;100.00;65435.88;4873365;29;20109;-47
2021/06/30 00:39:08;;;;;;;3.90;2.40;;;;;;;-145.50;100.00;65435.88;4881798;29;20092;-49
2021/06/30 00:41:39;;;;;;;5.78;2.22;;;;;;;-145.50;100.00;65435.88;4895470;29;20067;-48
2021/06/30 00:44:12;;;;;;;4.15;2.50;;;;;;;-145.50;100.00;65435.88;4886171;29;20060;-47
2021/06/30 00:46:43;;;;;;;7.13;2.33;;;;;;;-145.50;100.00;65435.88;4882253;29;20129;-48
2021/06/30 00:49:15;;;;;;;4.43;2.72;;;;;;;-145.50;100.00;65435.88;4883315;29;20588;-47
2021/06/30 00:51:46;;;;;;;3.35;2.40;;;;;;;-145.50;100.00;65435.88;4883776;29;20084;-47
2021/06/30 00:54:17;;;;;;;3.88;2.60;;;;;;;-145.50;100.00;65435.88;4893017;29;20078;-47
2021/06/30 00:56:49;;;;;;;4.07;2.65;;;;;;;-145.50;100.00;65435.88;4884782;29;20115;-47
2021/06/30 00:59:20;;;;;;;7.32;3.15;;;;;;;-145.50;100.00;65435.88;4889198;29;20056;-48
2021/06/30 01:01:52;;;;;;;6.25;2.53;;;;;;;-145.50;100.00;65435.88;4882378;29;20457;-48
2021/06/30 01:04:23;;;;;;;8.20;2.80;;;;;;;-145.50;100.00;65435.88;4891067;29;20147;-47
2021/06/30 01:06:55;;;;;;;4.93;2.50;;;;;;;-145.50;100.00;65435.88;4886306;29;20064;-48
2021/06/30 01:09:27;;;;;;;4.22;2.40;;;;;;;-145.50;100.00;65435.88;4890852;29;20465;-48
2021/06/30 01:12:00;;;;;;;5.47;2.38;;;;;;;-145.50;100.00;65435.88;4871466;29;20048;-47
2021/06/30 01:14:33;;;;;;;5.50;2.75;;;;;;;-145.50;100.00;65435.88;4863433;29;20112;-48
2021/06/30 01:17:07;;;;;;;4.35;2.63;;;;;;;-145.50;100.00;65435.88;4891147;29;20057;-49
2021/06/30 01:19:38;;;;;;;3.92;2.72;;;;;;;-145.50;100.00;65435.88;4885876;29;20501;-47
2021/06/30 01:22:10;;;;;;;6.72;2.70;;;;;;;-145.50;100.00;65435.88;4890373;29;20060;-46
2021/06/30 01:24:41;;;;;;;9.23;2.90;;;;;;;-145.50;100.00;65435.88;4884353;29;20104;-47
2021/06/30 01:27:17;;;;;;;5.95;3.15;;;;;;;-145.50;100.00;65435.88;4887157;29;20061;-47
2021/06/30 01:29:49;;;;;;;6.15;3.03;;;;;;;-145.50;100.00;65435.88;4868418;29;20151;-46
2021/06/30 01:32:20;;;;;;;6.53;3.03;;;;;;;-145.50;100.00;65435.88;4878709;29;20167;-46
2021/06/30 01:34:51;;;;;;;7.10;3.03;;;;;;;-145.50;100.00;65435.88;4876612;29;20059;-47
2021/06/30 01:37:23;;;;;;;5.45;3.00;;;;;;;-145.50;100.00;65435.88;4899029;29;20133;-45
2021/06/30 01:39:54;;;;;;;6.45;3.15;;;;;;;-145.50;100.00;65435.88;4887156;29;20049;-46
2021/06/30 01:42:26;;;;;;;6.47;3.03;;;;;;;-145.50;100.00;65435.88;4880478;29;20145;-47
2021/06/30 01:44:57;;;;;;;4.80;3.00;;;;;;;-145.50;100.00;65435.88;4872276;29;20061;-46
2021/06/30 01:47:29;;;;;;;4.50;2.67;;;;;;;-145.50;100.00;65435.88;4877460;29;20115;-46
2021/06/30 01:50:00;;;;;;;8.85;3.00;;;;;;;-145.50;100.00;65435.88;4890517;29;20167;-46
2021/06/30 01:52:33;;;;;;;4.88;3.08;;;;;;;-145.50;100.00;65435.88;4884388;29;20052;-46
2021/06/30 01:55:06;;;;;;;7.18;3.35;;;;;;;-145.50;100.00;65435.88;4882866;29;20470;-47
2021/06/30 01:57:45;;;;;;;6.22;3.10;;;;;;;-145.50;100.00;65435.88;4877031;29;20735;-46
2021/06/30 02:00:19;;;;;;;7.28;3.47;;;;;;;-145.50;100.00;65435.88;4888168;29;20477;-46
2021/06/30 02:02:50;;;;;;;7.82;3.28;;;;;;;-145.50;100.00;65435.88;4884118;29;20485;-47
2021/06/30 02:05:23;;;;;;;7.43;3.42;;;;;;;-145.50;100.00;65435.88;4890342;29;20056;-48
2021/06/30 02:07:57;;;;;;;5.10;3.03;;;;;;;-145.50;100.00;65435.88;4890536;29;20088;-48
2021/06/30 02:10:29;;;;;;;9.20;3.42;;;;;;;-145.50;100.00;65435.88;4856406;29;20108;-46
2021/06/30 02:13:01;;;;;;;7.43;3.58;;;;;;;-145.50;100.00;65435.88;4887908;29;20056;-46
2021/06/30 02:15:34;;;;;;;6.90;3.20;;;;;;;-145.50;100.00;65435.88;4871643;29;20568;-46
2021/06/30 02:18:06;;;;;;;4.97;2.90;;;;;;;-145.50;100.00;65435.88;4877231;29;20088;-47
2021/06/30 02:20:37;;;;;;;6.47;3.05;;;;;;;-145.50;100.00;65435.88;4874728;29;20064;-47
2021/06/30 02:23:09;;;;;;;7.78;3.38;;;;;;;-145.50;100.00;65435.88;4895689;29;20119;-47
2021/06/30 02:25:40;;;;;;;5.10;3.10;;;;;;;-145.50;100.00;65435.88;4865391;29;20088;-47
2021/06/30 02:28:12;;;;;;;11.98;3.35;;;;;;;-145.50;100.00;65435.88;4882693;29;20060;-46
2021/06/30 02:30:43;;;;;;;6.03;3.10;;;;;;;-145.50;100.00;65435.88;4884504;29;20103;-45
2021/06/30 02:33:15;;;;;;;6.93;3.45;;;;;;;-145.50;100.00;65435.88;4880366;29;20121;-47
2021/06/30 02:35:46;;;;;;;6.57;3.00;;;;;;;-145.50;100.00;65435.88;4882390;29;20056;-48
2021/06/30 02:38:18;;;;;;;7.53;3.08;;;;;;;-145.50;100.00;65435.88;4880384;29;20111;-47
2021/06/30 02:40:49;;;;;;;3.83;2.22;;;;;;;-145.50;100.00;65435.88;4889248;29;20151;-46
2021/06/30 02:43:21;;;;;;;4.28;2.35;;;;;;;-145.50;100.00;65435.88;4883064;29;20150;-47
2021/06/30 02:45:52;;;;;;;4.05;2.38;;;;;;;-145.50;100.00;65435.88;4888692;29;20056;-47
2021/06/30 02:48:25;;;;;;;6.05;2.70;;;;;;;-145.50;100.00;65435.88;4882212;29;20092;-49
2021/06/30 02:50:58;;;;;;;6.57;2.35;;;;;;;-145.50;100.00;65435.88;4885185;29;20068;-48
2021/06/30 02:53:29;;;;;;;4.68;2.47;;;;;;;-145.50;100.00;65435.88;4872916;29;20056;-46
2021/06/30 02:56:02;;;;;;;4.88;2.47;;;;;;;-145.50;100.00;65435.88;4876615;29;20120;-47
2021/06/30 02:58:34;;;;;;;6.22;2.90;;;;;;;-145.50;100.00;65435.88;4886979;29;20143;-46
2021/06/30 03:01:05;;;;;;;4.47;2.70;;;;;;;-145.50;100.00;65435.88;4888702;29;20060;-46
2021/06/30 03:03:36;;;;;;;4.47;2.33;;;;;;;-145.50;100.00;65435.88;4884386;29;20561;-47
2021/06/30 03:06:08;;;;;;;6.65;2.78;;;;;;;-145.50;100.00;65435.88;4879454;29;20115;-47
2021/06/30 03:08:39;;;;;;;4.95;2.60;;;;;;;-145.50;100.00;65435.88;4899967;29;20124;-46
2021/06/30 03:11:11;;;;;;;2.67;2.08;;;;;;;-145.50;100.00;65435.88;4883466;29;20108;-44
2021/06/30 03:13:37;;;;;;;3.90;2.47;;;;;;;-145.50;100.00;65435.88;4888773;29;20466;-45
2021/06/30 03:16:08;;;;;;;5.68;2.90;;;;;;;-145.50;100.00;65435.88;4883534;29;20049;-46
2021/06/30 03:18:40;;;;;;;3.95;2.80;;;;;;;-145.50;100.00;65435.88;4883524;29;20064;-46
2021/06/30 03:21:11;;;;;;;4.35;2.22;;;;;;;-145.50;100.00;65435.88;4876396;29;20151;-46
2021/06/30 03:23:43;;;;;;;4.15;2.35;;;;;;;-145.50;100.00;65435.88;4888175;29;20048;-48
2021/06/30 03:26:14;;;;;;;3.83;2.40;;;;;;;-145.50;100.00;65435.88;4889311;29;20140;-45
2021/06/30 03:28:45;;;;;;;3.88;2.22;;;;;;;-145.50;100.00;65435.88;4878992;29;20064;-47
2021/06/30 03:31:17;;;;;;;6.63;2.85;;;;;;;-145.50;100.00;65435.88;4886340;29;20064;-47
2021/06/30 03:33:48;;;;;;;5.18;2.95;;;;;;;-145.50;100.00;65435.88;4879029;29;20049;-48
2021/06/30 03:36:20;;;;;;;9.90;2.70;;;;;;;-145.50;100.00;65435.88;4887536;29;20140;-47
2021/06/30 03:38:51;;;;;;;5.45;2.45;;;;;;;-145.50;100.00;65435.88;4883790;29;20167;-48
2021/06/30 03:41:23;;;;;;;6.68;2.85;;;;;;;-145.50;100.00;65435.88;4894789;29;20060;-46
2021/06/30 03:43:55;;;;;;;4.95;2.97;;;;;;;-145.50;100.00;65435.88;4883320;29;20048;-48
2021/06/30 03:46:27;;;;;;;4.55;2.67;;;;;;;-145.50;100.00;65435.88;4885513;29;20124;-48
2021/06/30 03:48:58;;;;;;;4.78;2.80;;;;;;;-145.50;100.00;65435.88;4873512;29;20259;-49
2021/06/30 03:51:30;;;;;;;6.90;3.15;;;;;;;-145.50;100.00;65435.88;4883036;29;20108;-47
2021/06/30 03:54:05;;;;;;;7.63;3.28;;;;;;;-145.50;100.00;65435.88;4886433;29;20049;-47
2021/06/30 03:56:37;;;;;;;5.80;3.40;;;;;;;-145.50;100.00;65435.88;4879549;29;20147;-48
2021/06/30 03:59:08;;;;;;;5.57;3.40;;;;;;;-145.50;100.00;65435.88;4873904;29;20057;-48
2021/06/30 04:01:39;;;;;;;4.10;2.60;;;;;;;-145.50;100.00;65435.88;4870297;29;20167;-47
2021/06/30 04:04:12;;;;;;;6.03;2.88;;;;;;;-145.50;100.00;65435.88;4877025;29;20077;-47
2021/06/30 04:06:45;;;;;;;4.88;2.70;;;;;;;-145.50;100.00;65435.88;4882466;29;20100;-47
2021/06/30 04:09:16;;;;;;;5.20;3.03;;;;;;;-145.50;100.00;65435.88;4894339;29;20083;-47
2021/06/30 04:11:48;;;;;;;6.32;2.97;;;;;;;-145.50;100.00;65435.88;4882794;29;20479;-47
2021/06/30 04:14:19;;;;;;;5.00;2.80;;;;;;;-145.50;100.00;65435.88;4884974;29;20060;-48
2021/06/30 04:16:51;;;;;;;5.32;2.95;;;;;;;-145.50;100.00;65435.88;4886634;29;20056;-47
2021/06/30 04:19:22;;;;;;;5.82;3.45;;;;;;;-145.50;100.00;65435.88;4873783;29;20053;-48
2021/06/30 04:21:54;;;;;;;8.10;2.92;;;;;;;-145.50;100.00;65435.88;4872677;29;20067;-48
2021/06/30 04:24:25;;;;;;;4.57;2.70;;;;;;;-145.50;100.00;65435.88;4868214;29;20053;-47
2021/06/30 04:26:57;;;;;;;5.72;3.03;;;;;;;-145.50;100.00;65435.88;4897113;29;20544;-48
2021/06/30 04:29:28;;;;;;;6.00;3.05;;;;;;;-145.50;100.00;65435.88;4882627;29;20088;-47
2021/06/30 04:31:59;;;;;;;5.95;3.40;;;;;;;-145.50;100.00;65435.88;4884590;29;20195;-47
2021/06/30 04:34:31;;;;;;;5.15;3.17;;;;;;;-145.50;100.00;65435.88;4887026;29;20104;-48
2021/06/30 04:37:03;;;;;;;6.97;3.65;;;;;;;-145.50;100.00;65435.88;4893196;29;20096;-47
2021/06/30 04:39:34;;;;;;;6.45;3.83;;;;;;;-145.50;100.00;65435.88;4890105;29;20068;-47
2021/06/30 04:42:06;;;;;;;7.70;3.53;;;;;;;-145.50;100.00;65435.88;4885578;29;20069;-48
2021/06/30 04:44:37;;;;;;;5.85;3.53;;;;;;;-145.50;100.00;65435.88;4890869;29;20087;-48
2021/06/30 04:47:09;;;;;;;6.50;3.25;;;;;;;-145.50;100.00;65435.88;4881510;29;20081;-46
2021/06/30 04:49:40;;;;;;;6.50;3.75;;;;;;;-145.50;100.00;65435.88;4886813;29;20104;-48
2021/06/30 04:52:12;;;;;;;9.40;4.35;;;;;;;-145.50;100.00;65435.88;4882651;29;20569;-47
2021/06/30 04:54:43;;;;;;;7.15;3.67;;;;;;;-145.50;100.00;65435.88;4894798;29;20115;-48
2021/06/30 04:57:14;;;;;;;8.13;4.25;;;;;;;-145.50;100.00;65435.88;4881555;29;20099;-47
2021/06/30 04:59:46;;;;;;;12.02;4.45;;;;;;;-145.50;100.00;65435.88;4886088;29;20120;-47
2021/06/30 05:02:17;;;;;;;8.65;4.40;;;;;;;-145.50;100.00;65435.88;4889510;29;20060;-47
2021/06/30 05:04:48;;;;;;;8.82;4.68;;;;;;;-145.50;100.00;65435.88;4879024;29;20120;-47
2021/06/30 05:07:20;;;;;;;9.82;4.60;;;;;;;-145.50;100.00;65435.88;4895416;29;20115;-47
2021/06/30 05:09:51;;;;;;;8.70;4.45;;;;;;;-145.50;100.00;65435.88;4878767;29;20061;-47
2021/06/30 05:12:23;;;;;;;7.70;4.70;;;;;;;-145.50;100.00;65435.88;4865150;29;20056;-47
2021/06/30 05:14:54;;;;;;;9.85;4.90;;;;;;;-145.50;100.00;65435.88;4878227;29;20048;-48
2021/06/30 05:17:25;;;;;;;8.25;4.85;;;;;;;-145.50;100.00;65435.88;4892947;29;20066;-48
2021/06/30 05:19:57;;;;;;;10.35;5.28;;;;;;;-145.50;100.00;65435.88;4879531;29;20124;-49
2021/06/30 05:22:28;;;;;;;11.73;5.53;;;;;;;-145.50;100.00;65435.88;4858586;29;20056;-51
2021/06/30 05:25:00;;;;;;;9.80;5.20;;;;;;;-145.50;100.00;65435.88;4880625;29;20187;-51
2021/06/30 05:27:31;;;;;;;10.32;4.90;;;;;;;-145.50;100.00;65435.88;4870280;29;20112;-48
2021/06/30 05:30:04;;;;;;;10.15;5.32;;;;;;;-145.50;100.00;65435.88;4873982;29;20121;-48
2021/06/30 05:32:36;;;;;;;9.65;5.43;;;;;;;-145.50;100.00;65435.88;4876095;29;20061;-49
2021/06/30 05:35:07;;;;;;;12.05;5.03;;;;;;;-145.50;100.00;65435.88;4872817;29;20053;-48
2021/06/30 05:37:39;;;;;;;9.02;5.55;;;;;;;-145.50;100.00;65435.88;4873008;29;20432;-47
2021/06/30 05:40:11;;;;;;;10.52;6.15;;;;;;;-145.50;100.00;65435.88;4880821;29;20068;-48
2021/06/30 05:42:43;;;;;;;15.20;6.45;;;;;;;-145.50;100.00;65435.88;4883114;29;20609;-48
2021/06/30 05:45:16;;;;;;;15.25;5.78;;;;;;;-145.50;100.00;65435.88;4881789;29;20124;-47
2021/06/30 05:47:49;;;;;;;11.18;6.28;;;;;;;-145.50;100.00;65435.88;4894099;29;20124;-46
2021/06/30 05:50:20;;;;;;;16.38;6.10;;;;;;;-145.50;100.00;65435.88;4895576;29;20065;-50
2021/06/30 05:52:52;;;;;;;14.32;7.20;;;;;;;-145.50;100.00;65435.88;4886287;29;20117;-49
2021/06/30 05:55:24;;;;;;;13.75;6.45;;;;;;;-145.50;100.00;65435.88;4872642;29;20177;-49
2021/06/30 05:57:55;;;;;;;13.25;6.63;;;;;;;-145.50;100.00;65435.88;4884262;29;20056;-46
2021/06/30 06:00:26;;;;;;;12.40;6.22;;;;;;;-145.50;100.00;65435.88;4884541;29;20599;-47
2021/06/30 06:02:58;;;;;;;11.88;5.43;;;;;;;-145.50;100.00;65435.88;4890535;29;20127;-47
2021/06/30 06:05:29;;;;;;;9.40;5.70;;;;;;;-145.50;100.00;65435.88;4879976;29;20064;-50
2021/06/30 06:08:01;;;;;;;9.35;5.10;;;;;;;-145.50;100.00;65435.88;4881214;29;20060;-48
2021/06/30 06:10:33;;;;;;;10.80;5.72;;;;;;;-145.50;100.00;65435.88;4870031;29;20088;-48
2021/06/30 06:13:04;;;;;;;10.57;5.88;;;;;;;-145.50;100.00;65435.88;4882361;29;20088;-48
2021/06/30 06:15:36;;;;;;;11.05;5.30;;;;;;;-145.50;100.00;65435.88;4888718;29;20056;-47
2021/06/30 06:18:08;;;;;;;9.25;5.53;;;;;;;-145.50;100.00;65435.88;4881059;29;20091;-47
2021/06/30 06:20:39;;;;;;;11.30;5.63;;;;;;;-145.50;100.00;65435.88;4886575;29;20937;-47
2021/06/30 06:23:11;;;;;;;10.23;5.28;;;;;;;-145.50;100.00;65435.88;4883038;29;20132;-49
2021/06/30 06:25:42;;;;;;;10.02;5.13;;;;;;;-145.50;100.00;65435.88;4890378;29;20163;-49
2021/06/30 06:28:15;;;;;;;8.40;4.43;;;;;;;-145.50;100.00;65435.88;4883329;29;20147;-48
2021/06/30 06:30:49;;;;;;;7.75;4.10;;;;;;;-145.50;100.00;65435.88;4890607;29;20791;-48
2021/06/30 06:33:21;;;;;;;8.68;4.15;;;;;;;-145.50;100.00;65435.88;4878684;29;20556;-49
2021/06/30 06:35:53;;;;;;;6.40;4.22;;;;;;;-145.50;100.00;65435.88;4886695;29;20517;-49
2021/06/30 06:38:25;;;;;;;6.95;4.35;;;;;;;-145.50;100.00;65435.88;4887516;29;20056;-50
2021/06/30 06:40:51;;;;;;;7.85;4.10;;;;;;;-145.50;100.00;65435.88;4890201;29;20119;-48
2021/06/30 06:43:22;;;;;;;7.10;4.50;;;;;;;-145.50;100.00;65435.88;4897375;29;20105;-49
2021/06/30 06:45:54;;;;;;;8.35;3.67;;;;;;;-145.50;100.00;65435.88;4877311;29;20056;-49
2021/06/30 06:48:25;;;;;;;7.10;4.20;;;;;;;-145.50;100.00;65435.88;4877957;29;20060;-48
2021/06/30 06:50:57;;;;;;;5.97;3.47;;;;;;;-145.50;100.00;65435.88;4874196;29;20505;-49
2021/06/30 06:53:28;;;;;;;6.28;3.38;;;;;;;-145.50;100.00;65435.88;4889044;29;20088;-49
2021/06/30 06:56:01;;;;;;;6.00;3.60;;;;;;;-145.50;100.00;65435.88;4890919;29;20512;-49
2021/06/30 06:58:33;;;;;;;7.55;3.95;;;;;;;-145.50;100.00;65435.88;4896120;29;20087;-50
2021/06/30 07:01:06;;;;;;;6.93;3.85;;;;;;;-145.50;100.00;65435.88;4880550;29;20092;-49
2021/06/30 07:03:38;;;;;;;8.38;4.10;;;;;;;-145.50;100.00;65435.88;4887161;29;20163;-49
2021/06/30 07:06:09;;;;;;;7.47;3.80;;;;;;;-145.50;100.00;65435.88;4877490;29;20056;-49
2021/06/30 07:08:41;;;;;;;6.95;4.20;;;;;;;-145.50;100.00;65435.88;4883735;29;20484;-48
2021/06/30 07:11:13;;;;;;;6.85;3.85;;;;;;;-145.50;100.00;65435.88;4877065;29;20053;-49
2021/06/30 07:13:44;;;;;;;6.68;3.92;;;;;;;-145.50;100.00;65435.88;4868924;29;20571;-49
2021/06/30 07:16:16;;;;;;;5.90;3.97;;;;;;;-145.50;100.00;65435.88;4885406;29;20075;-49
2021/06/30 07:18:47;;;;;;;7.75;4.00;;;;;;;-145.50;100.00;65435.88;4883773;29;20068;-48
2021/06/30 07:21:19;;;;;;;7.68;4.10;;;;;;;-145.50;100.00;65435.88;4889697;29;20053;-48
2021/06/30 07:23:50;;;;;;;7.32;4.10;;;;;;;-145.50;100.00;65435.88;4888293;29;20061;-48
2021/06/30 07:26:22;;;;;;;6.78;4.38;;;;;;;-145.50;100.00;65435.88;4883152;29;20132;-48
2021/06/30 07:28:53;;;;;;;8.25;3.80;;;;;;;-145.50;100.00;65435.88;4876183;29;20143;-51
2021/06/30 07:31:25;;;;;;;8.18;4.75;;;;;;;-145.50;100.00;65435.88;4885559;29;20051;-47
2021/06/30 07:33:56;;;;;;;7.60;4.38;;;;;;;-145.50;100.00;65435.88;4890409;29;20095;-48
2021/06/30 07:36:27;;;;;;;7.97;4.72;;;;;;;-145.50;100.00;65435.88;4880792;29;20060;-47
2021/06/30 07:38:59;;;;;;;10.07;4.63;;;;;;;-145.50;100.00;65435.88;4889607;29;20056;-48
2021/06/30 07:41:30;;;;;;;7.07;4.65;;;;;;;-145.50;100.00;65435.88;4880578;29;20052;-49
2021/06/30 07:44:02;;;;;;;11.35;5.90;;;;;;;-145.50;100.00;65435.88;4884038;29;20128;-49
2021/06/30 07:46:28;;;;;;;8.65;4.65;;;;;;;-145.50;100.00;65435.88;4898168;29;20095;-49
2021/06/30 07:48:55;;;;;;;6.53;4.00;;;;;;;-145.50;100.00;65435.88;4880387;29;20511;-49
2021/06/30 07:51:22;;;;;;;7.82;4.70;;;;;;;-145.50;100.00;65435.88;4889372;29;20060;-47
2021/06/30 07:53:48;;;;;;;7.53;4.60;;;;;;;-145.50;100.00;65435.88;4875737;29;20448;-48
2021/06/30 07:56:15;;;;;;;8.25;5.20;;;;;;;-145.50;100.00;65435.88;4883736;29;20143;-49
2021/06/30 07:58:41;;;;;;;7.85;4.88;;;;;;;-145.50;100.00;65435.88;4884008;29;20084;-49
2021/06/30 08:01:08;;;;;;;10.25;5.20;;;;;;;-145.50;100.00;65435.88;4892614;29;20143;-48
2021/06/30 08:03:34;;;;;;;8.75;5.75;;;;;;;-145.50;100.00;65435.88;4889753;29;20057;-49
2021/06/30 08:06:01;;;;;;;7.78;4.85;;;;;;;-145.50;100.00;65435.88;4888758;29;20135;-48
2021/06/30 08:08:27;;;;;;;8.73;5.20;;;;;;;-145.50;100.00;65435.88;4893737;29;20151;-48
2021/06/30 08:10:54;;;;;;;9.85;5.68;;;;;;;-145.50;100.00;65435.88;4881788;29;20163;-49
2021/06/30 08:13:21;;;;;;;10.57;5.38;;;;;;;-145.50;100.00;65435.88;4887798;29;20053;-48
2021/06/30 08:15:48;;;;;;;8.07;4.95;;;;;;;-145.50;100.00;65435.88;4882014;29;20106;-48
2021/06/30 08:18:14;;;;;;;9.98;4.85;;;;;;;-145.50;100.00;65435.88;4888036;29;20080;-48
2021/06/30 08:20:43;;;;;;;9.35;5.30;;;;;;;-145.50;100.00;65435.88;4882585;29;20099;-49
2021/06/30 08:23:09;;;;;;;7.68;5.10;;;;;;;-145.50;100.00;65435.88;4883794;29;20087;-48
2021/06/30 08:25:35;;;;;;;8.80;5.38;;;;;;;-145.50;100.00;65435.88;4893005;29;20420;-48
2021/06/30 08:28:02;;;;;;;9.95;5.45;;;;;;;-145.50;100.00;65435.88;4886543;29;20091;-48
2021/06/30 08:30:29;;;;;;;8.57;5.45;;;;;;;-145.50;100.00;65435.88;4892401;29;20092;-49
2021/06/30 08:32:55;;;;;;;9.15;5.18;;;;;;;-145.50;100.00;65435.88;4885528;29;20135;-48
2021/06/30 08:35:22;;;;;;;10.10;5.13;;;;;;;-145.50;100.00;65435.88;4891311;29;20084;-47
2021/06/30 08:37:48;;;;;;;8.30;5.63;;;;;;;-145.50;100.00;65435.88;4869687;29;20084;-47
2021/06/30 08:40:15;;;;;;;8.40;5.57;;;;;;;-145.50;100.00;65435.88;4878081;29;20164;-48
2021/06/30 08:42:43;;;;;;;7.78;5.53;;;;;;;-145.50;100.00;65435.88;4879552;29;20052;-49
2021/06/30 08:45:10;;;;;;;8.38;5.22;;;;;;;-145.50;100.00;65435.88;4886577;29;20088;-47
2021/06/30 08:47:39;;;;;;;10.35;4.97;;;;;;;-145.50;100.00;65435.88;4892099;29;20167;-49
2021/06/30 08:50:08;;;;;;;11.40;5.13;;;;;;;-145.50;100.00;65435.88;4884950;29;20152;-47
2021/06/30 08:52:35;;;;;;;;;;;;;;;-145.50;100.00;65435.88;4883427;29;20104;-49
2021/06/30 08:55:04;;;;;;;9.98;5.90;;;;;;;-145.50;100.00;65435.88;4883660;29;19934;-48
2021/06/30 08:57:32;;;;;;;9.40;5.93;;;;;;;-145.50;100.00;65435.88;4892111;29;20143;-49
2021/06/30 08:59:59;;;;;;;8.93;5.50;;;;;;;-145.50;100.00;65435.88;4885441;29;20146;-48
2021/06/30 09:02:25;;;;;;;10.55;6.28;;;;;;;-145.50;100.00;65435.88;4891229;29;20180;-49
2021/06/30 09:07:39;;;;;;;9.32;5.82;;;;;;;-145.50;100.00;65435.88;4883889;29;20492;-48
2021/06/30 09:10:07;;;;;;;10.23;5.38;;;;;;;-145.50;100.00;65435.88;4889973;29;20152;-48
2021/06/30 09:12:39;;;;;;;10.32;5.43;;;;;;;-145.50;100.00;65435.88;4885662;29;20056;-49
2021/06/30 09:15:17;;;;;;;7.60;5.07;;;;;;;-145.50;100.00;65435.88;4895114;29;20044;-48
2021/06/30 09:17:46;;;;;;;9.52;6.28;;;;;;;-145.50;100.00;65435.88;4878322;29;20155;-48
2021/06/30 09:20:13;;;;;;;10.68;6.20;;;;;;;-145.50;100.00;65435.88;4886893;29;20147;-49
2021/06/30 09:22:44;;;;;;;12.07;6.03;;;;;;;-145.50;100.00;65435.88;4876745;29;20139;-48
2021/06/30 09:25:33;;;;;;;10.25;6.45;;;;;;;-145.50;100.00;65435.88;4889286;29;20049;-49
2021/06/30 09:28:13;;;;;;;11.25;5.70;;;;;;;-145.50;100.00;65435.88;4887783;29;20056;-50
2021/06/30 09:31:09;;;;;;;12.45;6.78;;;;;;;-145.50;100.00;65435.88;4878354;29;20428;-51
2021/06/30 09:33:51;;;;;;;14.57;7.18;;;;;;;-145.50;100.00;65435.88;4876717;29;20094;-47
2021/06/30 09:36:19;;;;;;;11.27;6.07;;;;;;;-145.50;100.00;65435.88;4882352;29;20151;-49
2021/06/30 09:38:46;;;;;;;10.10;6.22;;;;;;;-145.50;100.00;65435.88;4891553;29;20892;-47
2021/06/30 09:41:22;;;;;;;12.30;6.38;;;;;;;-145.50;100.00;65435.88;4891853;29;20159;-49
2021/06/30 09:43:49;;;;;;;11.73;6.20;;;;;;;-145.50;100.00;65435.88;4893566;29;20762;-49
2021/06/30 09:46:25;;;;;;;10.30;6.20;;;;;;;-145.50;100.00;65435.88;4881200;29;20147;-48
2021/06/30 09:48:56;;;;;;;9.68;5.85;;;;;;;-145.50;100.00;65435.88;4886808;29;20151;-49
2021/06/30 09:51:23;;;;;;;8.43;5.22;;;;;;;-145.50;100.00;65435.88;4890352;29;20139;-49
2021/06/30 09:53:50;;;;;;;9.07;4.97;;;;;;;-145.50;100.00;65435.88;4884125;29;20053;-48
2021/06/30 09:59:08;;;;;;;13.20;5.97;;;;;;;-145.50;100.00;65435.88;4890151;29;20291;-48
2021/06/30 10:01:36;;;;;;;9.98;6.28;;;;;;;-145.50;100.00;65435.88;4879935;29;20156;-47
2021/06/30 10:04:04;;;;;;;11.30;5.50;;;;;;;-145.50;100.00;65435.88;4889496;29;20078;-48
2021/06/30 10:06:34;;;;;;;9.82;5.22;;;;;;;-145.50;100.00;65435.88;4890832;29;20056;-51
2021/06/30 10:09:05;;;;;;;9.65;5.30;;;;;;;-145.50;100.00;65435.88;4897276;29;20083;-48
2021/06/30 10:11:34;;;;;;;14.00;7.05;;;;;;;-145.50;100.00;65435.88;4877350;29;20075;-47
2021/06/30 10:14:02;;;;;;;9.35;5.47;;;;;;;-145.50;100.00;65435.88;4880890;29;20057;-48
2021/06/30 10:16:29;;;;;;;8.70;5.13;;;;;;;-145.50;100.00;65435.88;4887177;29;20159;-48
2021/06/30 10:18:58;;;;;;;7.57;4.93;;;;;;;-145.50;100.00;65435.88;4885467;29;20088;-48
2021/06/30 10:21:29;;;;;;;9.73;5.18;;;;;;;-145.50;100.00;65435.88;4892494;29;20575;-48
2021/06/30 10:23:57;;;;;;;8.40;4.85;;;;;;;-145.50;100.00;65435.88;4894338;29;20152;-50
2021/06/30 10:26:24;;;;;;;9.98;5.32;;;;;;;-145.50;100.00;65435.88;4890047;29;20084;-50
2021/06/30 10:28:59;;;;;;;10.55;5.63;;;;;;;-145.50;100.00;65435.88;4883850;29;20053;-48
2021/06/30 10:31:34;;;;;;;10.75;6.20;;;;;;;-145.50;100.00;65435.88;4876991;29;20167;-49
2021/06/30 10:34:11;;;;;;;10.45;5.82;;;;;;;-145.50;100.00;65435.88;4874523;29;20171;-49
2021/06/30 10:36:57;;;;;;;11.00;5.90;;;;;;;-145.50;100.00;65435.88;4876722;29;20060;-48
2021/06/30 10:39:36;;;;;;;11.50;6.47;;;;;;;-145.50;100.00;65435.88;4885040;29;20054;-49
2021/06/30 10:42:29;;;;;;;10.15;6.40;;;;;;;-145.50;100.00;65435.88;4889446;29;20163;-48
2021/06/30 10:44:59;;;;;;;12.02;7.28;;;;;;;-145.50;100.00;65435.88;4888668;29;20144;-48
2021/06/30 10:47:47;;;;;;;11.90;7.10;;;;;;;-145.50;100.00;65435.88;4876182;29;20552;-48
2021/06/30 10:50:22;;;;;;;;;;;;;;;-145.50;100.00;65435.88;4879994;29;20151;-49
2021/06/30 10:53:25;;;;;;;11.60;6.25;;;;;;;-145.50;100.00;65435.88;4881551;29;20014;-48
2021/06/30 10:55:59;;;;;;;8.70;5.18;;;;;;;-145.50;100.00;65435.88;4879925;29;20088;-49
2021/06/30 10:58:30;;;;;;;10.30;5.13;;;;;;;-145.50;100.00;65435.88;4876142;29;20663;-49
2021/06/30 11:01:07;;;;;;;9.35;5.53;;;;;;;-145.50;100.00;65435.88;4881645;29;20414;-48
2021/06/30 11:03:45;;;;;;;9.38;5.50;;;;;;;-145.50;100.00;65435.88;4883308;29;20080;-49
2021/06/30 11:06:14;;;;;;;11.05;5.60;;;;;;;-145.50;100.00;65435.88;4877237;29;20149;-49
2021/06/30 11:08:46;;;;;;;7.82;5.18;;;;;;;-145.50;100.00;65435.88;4880623;29;20139;-50
2021/06/30 11:11:27;;;;;;;9.68;5.95;;;;;;;-145.50;100.00;65435.88;4898433;29;20155;-49
2021/06/30 11:13:57;;;;;;;10.18;5.57;;;;;;;-145.50;100.00;65435.88;4889047;29;20076;-48
2021/06/30 11:16:39;;;;;;;9.45;5.60;;;;;;;-145.50;100.00;65435.88;4882233;29;20139;-52
2021/06/30 11:19:08;;;;;;;20.85;11.27;;;;;;;-145.50;100.00;65435.88;4889204;29;20059;-49
2021/06/30 11:21:52;;;;;;;10.30;6.20;;;;;;;-145.50;100.00;65435.88;4883492;29;20436;-49
2021/06/30 11:27:06;;;;;;;9.48;5.53;;;;;;;-145.50;100.00;65435.88;4882793;29;20060;-49
2021/06/30 11:29:42;;;;;;;9.32;5.90;;;;;;;-145.50;100.00;65435.88;4889641;29;20465;-52
2021/06/30 11:32:28;;;;;;;10.02;6.32;;;;;;;-145.50;100.00;65435.88;4882354;29;20548;-48
2021/06/30 11:34:55;;;;;;;11.25;5.78;;;;;;;-145.50;100.00;65435.88;4889078;29;20124;-51